Redwood City, CA (94064)

11:39 AM PDT on October 31, 2014 (GMT -0700)
Redwood City Hills | Change Station
CLOSE
Current Station
Personal Weather Station
Location: Redwood City, CA
Elevation: 170 ft
Nearby Weather Stations

Elev 170 ft 37.47 °N, 122.25 °W | Updated 55 seconds ago

Overcast
Overcast
62.2 °F
Feels Like 62.2 °F
N
4.3
Wind Variable Wind from NNW
Gusts 4.3 mph

Today
High -- | Low -- °F
--% Chance of Precip.
Yesterday
High -- | Low -- °F
Precip. -- in
7:32 AM 6:11 PM
First Quarter, 57% visible
Pressure 29.88 in
Visibility 0.8 miles
Clouds Mostly Cloudy 400 ft
Mostly Cloudy 1000 ft
Overcast 1600 ft
Dew Point 56 °F
Humidity 81%
Rainfall 0.00 in
Snow Depth Not available.
UV 1 out of 12
Pollen .50 out of 12
Air Quality Not available.
Flu Activity Not available.
SPECI KSQL 311830Z 27007KT 3/4SM RA BKN004 BKN010 OVC016 15/14 A2988

More Conditions Fewer Conditions

Pressure 29.88 in
Visibility 0.8 miles
Clouds Mostly Cloudy 400 ft
Mostly Cloudy 1000 ft
Overcast 1600 ft
Dew Point 56 °F
Humidity 81%
Rainfall 0.00 in
Snow Depth Not available.
UV 1 out of 12
Pollen .50 out of 12
Air Quality Not available.
Flu Activity Not available.
SPECI KSQL 311830Z 27007KT 3/4SM RA BKN004 BKN010 OVC016 15/14 A2988

More Conditions Fewer Conditions

10-Day Weather Forecast

Almanac

Astronomy

Oct. 31, 2014 Rise Set
Actual Time
Civil Twilight
Nautical Twilight
Astronomical Twilight
Moon
Length of Visible Light
Length of Day
Tomorrow will be .
, % of the Moon is Illuminated

Today's Extremes

State Highs State Lows

Community

WunderPhotos

Upload Photos

1,766,690 photos uploaded!

WunderBlogs® & News

Nearby

Air Quality

  Air Quality AQ Index Pollutant
Not available.

Snow Depth

Station Depth Elevation

Earthquake Activity

City Distance Mag. Time & Date
Minimum magnitude displayed is 2.5.

Coastal Water Temperatures

Place Temperature

Nearby Weather Stations